createdAt,value
2018-11-28T00:01:34.515Z,2.70
2018-11-28T00:04:04.641Z,2.70
2018-11-28T00:06:34.247Z,2.70
2018-11-28T00:09:04.056Z,2.70
2018-11-28T00:24:36.888Z,2.70
2018-11-28T00:27:06.445Z,2.60
2018-11-28T00:29:36.092Z,2.50
2018-11-28T00:32:06.361Z,2.60
2018-11-28T00:34:36.753Z,2.50
2018-11-28T00:37:07.298Z,2.50
2018-11-28T00:39:37.043Z,2.50
2018-11-28T00:42:07.294Z,2.50
2018-11-28T00:44:38.766Z,2.60
2018-11-28T00:47:08.807Z,2.50
2018-11-28T00:49:38.315Z,2.50
2018-11-28T00:52:08.749Z,2.50
2018-11-28T00:54:40.955Z,2.50
2018-11-28T00:57:12.475Z,2.50
2018-11-28T00:59:44.108Z,2.40
2018-11-28T01:02:15.658Z,2.40
2018-11-28T01:04:45.230Z,2.30
2018-11-28T01:07:17.405Z,2.30
2018-11-28T01:09:48.030Z,2.20
2018-11-28T01:12:18.107Z,2.30
2018-11-28T01:14:50.205Z,2.30
2018-11-28T01:17:20.414Z,2.30
2018-11-28T01:19:51.921Z,2.30
2018-11-28T01:22:23.167Z,2.30
2018-11-28T01:24:53.272Z,2.30
2018-11-28T01:27:24.081Z,2.30
2018-11-28T01:29:56.499Z,2.20
2018-11-28T01:32:27.297Z,2.20
2018-11-28T01:34:57.942Z,2.20
2018-11-28T01:37:27.842Z,2.20
2018-11-28T01:39:58.139Z,2.20
2018-11-28T01:42:27.692Z,2.20
2018-11-28T01:44:57.203Z,2.20
2018-11-28T01:47:26.792Z,2.20
2018-11-28T01:49:56.274Z,2.20
2018-11-28T01:52:25.779Z,2.20
2018-11-28T01:54:57.346Z,2.20
2018-11-28T01:57:26.890Z,2.30
2018-11-28T01:59:56.406Z,2.30
2018-11-28T02:02:27.988Z,2.30
2018-11-28T02:04:58.450Z,2.30
2018-11-28T02:07:28.029Z,2.30
2018-11-28T02:09:57.531Z,2.30
2018-11-28T02:12:27.006Z,2.30
2018-11-28T02:14:56.469Z,2.30
2018-11-28T02:17:25.988Z,2.30
2018-11-28T02:19:55.523Z,2.30
2018-11-28T02:35:28.236Z,2.30
2018-11-28T02:37:57.716Z,2.30
2018-11-28T02:40:27.875Z,1.80
2018-11-28T02:42:57.433Z,1.70
2018-11-28T02:45:27.644Z,1.70
2018-11-28T02:48:00.736Z,1.70
2018-11-28T02:50:30.161Z,1.70
2018-11-28T02:52:59.651Z,1.70
2018-11-28T02:55:29.103Z,1.60
2018-11-28T02:57:59.581Z,1.60
2018-11-28T03:00:29.043Z,1.50
2018-11-28T03:03:00.228Z,1.50
2018-11-28T03:05:31.244Z,1.50
2018-11-28T03:08:00.792Z,1.40
2018-11-28T03:10:30.221Z,1.40
2018-11-28T03:12:59.836Z,1.30
2018-11-28T03:15:33.697Z,1.30
2018-11-28T03:18:03.164Z,1.30
2018-11-28T03:20:32.731Z,1.10
2018-11-28T03:23:02.242Z,1.10
2018-11-28T03:25:31.777Z,1.10
2018-11-28T03:28:01.320Z,1.10
2018-11-28T03:30:32.404Z,0.90
2018-11-28T03:33:01.923Z,0.90
2018-11-28T03:35:31.356Z,0.80
2018-11-28T03:38:00.897Z,0.80
2018-11-28T03:40:30.440Z,0.80
2018-11-28T03:42:59.989Z,0.70
2018-11-28T03:45:30.126Z,0.70
2018-11-28T03:47:59.691Z,0.70
2018-11-28T03:50:29.143Z,0.70
2018-11-28T03:52:59.682Z,0.70
2018-11-28T03:55:29.173Z,0.70
2018-11-28T03:57:58.694Z,0.70
2018-11-28T04:00:28.159Z,0.70
2018-11-28T04:02:57.659Z,0.70
2018-11-28T04:05:27.140Z,0.70
2018-11-28T04:07:57.548Z,0.60
2018-11-28T04:23:30.411Z,0.60
2018-11-28T04:25:59.966Z,0.60
2018-11-28T04:28:30.209Z,0.40
2018-11-28T04:30:59.683Z,0.40
2018-11-28T04:33:29.127Z,0.40
2018-11-28T04:35:58.536Z,0.40
2018-11-28T04:38:29.371Z,0.40
2018-11-28T04:40:57.481Z,0.40
2018-11-28T04:43:28.025Z,0.50
2018-11-28T04:45:57.518Z,0.50
2018-11-28T04:48:26.982Z,0.60
2018-11-28T04:50:56.436Z,0.60
2018-11-28T04:53:25.970Z,0.60
2018-11-28T04:55:55.530Z,0.50
2018-11-28T04:58:25.089Z,0.50
2018-11-28T05:00:54.600Z,0.40
2018-11-28T05:03:24.136Z,0.40
2018-11-28T05:05:53.557Z,0.40
2018-11-28T05:08:22.947Z,0.50
2018-11-28T05:10:54.411Z,0.40
2018-11-28T05:13:24.846Z,0.40
2018-11-28T05:15:54.248Z,0.40
2018-11-28T05:18:23.718Z,0.30
2018-11-28T05:20:53.228Z,0.30
2018-11-28T05:23:23.767Z,0.20
2018-11-28T05:25:53.271Z,0.20
2018-11-28T05:28:22.841Z,0.20
2018-11-28T05:30:52.237Z,0.20
2018-11-28T05:33:21.681Z,0.20
2018-11-28T05:35:51.103Z,0.20
2018-11-28T05:38:20.470Z,0.10
2018-11-28T05:40:49.957Z,0.20
2018-11-28T05:43:20.510Z,0.20
2018-11-28T05:45:50.023Z,0.20
2018-11-28T05:48:19.603Z,0.20
2018-11-28T05:50:50.212Z,0.20
2018-11-28T05:53:19.753Z,0.30
2018-11-28T05:55:49.254Z,0.30
2018-11-28T05:58:18.867Z,0.40
2018-11-28T06:00:48.306Z,0.50
2018-11-28T06:03:17.858Z,0.50
2018-11-28T06:05:47.481Z,0.40
2018-11-28T06:08:16.851Z,0.50
2018-11-28T06:10:46.325Z,0.50
2018-11-28T06:13:15.762Z,0.50
2018-11-28T06:15:45.372Z,0.50
2018-11-28T06:18:14.870Z,0.50
2018-11-28T06:20:44.378Z,0.50
2018-11-28T06:23:13.869Z,0.60
2018-11-28T06:25:43.345Z,0.70
2018-11-28T06:28:12.807Z,0.70
2018-11-28T06:30:42.277Z,0.60
2018-11-28T06:33:11.918Z,0.60
2018-11-28T06:35:41.383Z,0.60
2018-11-28T06:38:12.222Z,0.60
2018-11-28T06:40:41.644Z,0.60
2018-11-28T06:43:11.340Z,0.60
2018-11-28T06:45:40.879Z,0.60
2018-11-28T06:48:10.473Z,0.60
2018-11-28T06:50:39.957Z,0.50
2018-11-28T06:53:09.526Z,0.50
2018-11-28T06:55:38.975Z,0.60
2018-11-28T06:58:10.149Z,0.60
2018-11-28T07:00:40.442Z,0.70
2018-11-28T07:03:10.048Z,0.70
2018-11-28T07:05:39.533Z,0.70
2018-11-28T07:08:08.919Z,0.80
2018-11-28T07:10:38.412Z,0.90
2018-11-28T07:13:07.927Z,0.90
2018-11-28T07:15:37.483Z,0.90
2018-11-28T07:18:18.109Z,0.90
2018-11-28T07:20:47.633Z,0.90
2018-11-28T07:23:17.778Z,0.90
2018-11-28T07:25:47.366Z,0.90
2018-11-28T07:28:16.877Z,0.90
2018-11-28T07:30:46.380Z,0.90
2018-11-28T07:33:15.837Z,1.00
2018-11-28T07:35:45.351Z,1.10
2018-11-28T07:38:15.438Z,1.10
2018-11-28T07:40:45.018Z,1.20
2018-11-28T07:43:15.512Z,1.30
2018-11-28T07:45:49.552Z,1.40
2018-11-28T07:48:19.056Z,1.40
2018-11-28T07:50:48.614Z,1.50
2018-11-28T07:53:18.137Z,1.50
2018-11-28T07:55:47.641Z,1.70
2018-11-28T07:58:17.293Z,1.70
2018-11-28T08:00:47.810Z,1.70
2018-11-28T08:03:18.009Z,1.80
2018-11-28T08:05:47.537Z,1.70
2018-11-28T08:08:17.093Z,1.80
2018-11-28T08:10:47.073Z,1.90
2018-11-28T08:13:16.679Z,1.90
2018-11-28T08:15:46.197Z,1.90
2018-11-28T08:18:15.655Z,1.90
2018-11-28T08:20:45.166Z,1.90
2018-11-28T08:23:14.671Z,2.00
2018-11-28T08:25:45.739Z,2.10
2018-11-28T08:28:15.220Z,2.10
2018-11-28T08:30:45.084Z,2.30
2018-11-28T08:33:14.578Z,2.30
2018-11-28T08:35:44.080Z,2.20
2018-11-28T08:38:13.621Z,2.20
2018-11-28T08:40:44.117Z,2.20
2018-11-28T08:43:13.492Z,2.30
2018-11-28T08:45:43.124Z,2.30
2018-11-28T08:48:18.166Z,2.40
2018-11-28T08:50:48.214Z,2.50
2018-11-28T08:53:17.822Z,2.60
2018-11-28T08:55:47.437Z,2.60
2018-11-28T08:58:17.033Z,2.70
2018-11-28T09:00:46.903Z,2.90
2018-11-28T09:03:16.977Z,3.00
2018-11-28T09:05:46.557Z,3.30
2018-11-28T09:08:16.064Z,3.40
2018-11-28T09:10:45.634Z,3.50
2018-11-28T09:13:16.136Z,3.60
2018-11-28T09:15:47.570Z,3.70
2018-11-28T09:18:17.163Z,3.80
2018-11-28T09:20:48.644Z,3.90
2018-11-28T09:23:18.135Z,3.90
2018-11-28T09:25:47.671Z,3.90
2018-11-28T09:28:18.108Z,4.00
2018-11-28T09:30:47.556Z,4.10
2018-11-28T09:33:17.075Z,4.20
2018-11-28T09:35:48.624Z,4.20
2018-11-28T09:38:18.126Z,4.20
2018-11-28T09:40:47.636Z,4.20
2018-11-28T09:43:17.169Z,4.10
2018-11-28T09:45:46.613Z,4.20
2018-11-28T09:48:16.039Z,4.30
2018-11-28T09:50:45.506Z,4.40
2018-11-28T09:53:15.010Z,4.50
2018-11-28T09:55:44.437Z,4.50
2018-11-28T09:58:13.891Z,4.60
2018-11-28T10:00:43.311Z,4.60
2018-11-28T10:03:13.903Z,4.60
2018-11-28T10:05:43.437Z,4.60
2018-11-28T10:08:12.960Z,4.60
2018-11-28T10:10:43.471Z,4.60
2018-11-28T10:13:13.663Z,4.60
2018-11-28T10:15:43.106Z,4.60
2018-11-28T10:18:12.628Z,4.70
2018-11-28T10:20:42.131Z,4.70
2018-11-28T10:23:11.604Z,4.70
2018-11-28T10:25:43.210Z,4.70
2018-11-28T10:28:12.644Z,4.70
2018-11-28T10:30:43.173Z,4.90
2018-11-28T10:33:13.156Z,5.00
2018-11-28T10:35:42.724Z,5.20
2018-11-28T10:38:12.225Z,5.30
2018-11-28T10:40:41.778Z,5.30
2018-11-28T10:43:12.161Z,5.40
2018-11-28T10:45:41.663Z,5.50
2018-11-28T10:48:12.586Z,5.60
2018-11-28T10:50:42.122Z,5.60
2018-11-28T10:53:12.688Z,5.60
2018-11-28T10:55:42.264Z,5.60
2018-11-28T10:58:11.848Z,5.50
2018-11-28T11:00:46.601Z,5.60
2018-11-28T11:03:21.596Z,5.50
2018-11-28T11:05:56.413Z,5.50
2018-11-28T11:08:27.292Z,5.30
2018-11-28T11:11:02.052Z,5.20
2018-11-28T11:13:36.789Z,5.00
2018-11-28T11:16:07.267Z,5.00
2018-11-28T11:18:38.901Z,5.10
2018-11-28T11:21:08.488Z,5.20
2018-11-28T11:23:38.944Z,5.30
2018-11-28T11:26:08.490Z,5.30
2018-11-28T11:28:39.187Z,5.30
2018-11-28T11:31:08.677Z,5.40
2018-11-28T11:33:40.277Z,5.30
2018-11-28T11:36:09.799Z,5.20
2018-11-28T11:38:39.363Z,5.30
2018-11-28T11:41:09.927Z,5.30
2018-11-28T11:43:39.458Z,5.40
2018-11-28T11:46:09.030Z,5.40
2018-11-28T11:48:39.542Z,5.30
2018-11-28T11:51:09.019Z,5.30
2018-11-28T11:53:39.602Z,5.30
2018-11-28T11:56:10.115Z,5.30
2018-11-28T11:58:41.639Z,5.30
2018-11-28T12:01:12.206Z,5.40
2018-11-28T12:03:42.707Z,5.60
2018-11-28T12:06:13.079Z,5.50
2018-11-28T12:08:43.565Z,5.50
2018-11-28T12:11:13.101Z,5.60
2018-11-28T12:13:43.711Z,5.70
2018-11-28T12:16:13.210Z,5.80
2018-11-28T12:18:44.846Z,5.70
2018-11-28T12:21:15.334Z,5.80
2018-11-28T12:23:44.890Z,5.70
2018-11-28T12:26:14.394Z,5.80
2018-11-28T12:28:43.985Z,5.90
2018-11-28T12:31:13.563Z,5.60
2018-11-28T12:33:43.290Z,5.70
2018-11-28T12:36:13.795Z,5.60
2018-11-28T12:38:44.060Z,5.40
2018-11-28T12:41:15.574Z,5.20
2018-11-28T12:43:45.127Z,5.30
2018-11-28T12:46:16.334Z,5.20
2018-11-28T12:48:46.942Z,5.10
2018-11-28T12:51:16.549Z,5.10
2018-11-28T12:53:46.078Z,5.00
2018-11-28T12:56:15.551Z,4.90
2018-11-28T12:58:45.029Z,4.80
2018-11-28T13:01:14.638Z,4.80
2018-11-28T13:03:44.180Z,4.70
2018-11-28T13:06:14.678Z,4.60
2018-11-28T13:08:44.212Z,4.60
2018-11-28T13:11:13.660Z,4.60
2018-11-28T13:13:43.291Z,4.60
2018-11-28T13:16:12.843Z,4.60
2018-11-28T13:18:42.323Z,4.50
2018-11-28T13:21:11.769Z,4.40
2018-11-28T13:23:41.272Z,4.40
2018-11-28T13:26:12.818Z,4.40
2018-11-28T13:28:42.330Z,4.50
2018-11-28T13:31:11.872Z,4.40
2018-11-28T13:33:42.386Z,4.40
2018-11-28T13:36:12.886Z,4.40
2018-11-28T13:38:42.372Z,4.30
2018-11-28T13:41:12.939Z,4.40
2018-11-28T13:43:42.547Z,4.40
2018-11-28T13:46:13.028Z,4.40
2018-11-28T13:48:42.526Z,4.50
2018-11-28T13:51:11.988Z,4.60
2018-11-28T13:53:42.623Z,4.60
2018-11-28T13:58:41.653Z,4.50
2018-11-28T14:01:11.230Z,4.50
2018-11-28T14:03:40.871Z,4.50
2018-11-28T14:06:10.370Z,4.50
2018-11-28T14:08:40.262Z,4.60
2018-11-28T14:11:09.875Z,4.70
2018-11-28T14:13:39.471Z,4.60
2018-11-28T14:16:08.894Z,4.60
2018-11-28T14:18:38.420Z,4.50
2018-11-28T14:34:10.469Z,4.50
2018-11-28T14:36:39.877Z,4.50
2018-11-28T14:39:09.588Z,4.40
2018-11-28T14:41:39.064Z,4.30
2018-11-28T14:44:08.472Z,4.30
2018-11-28T14:46:38.978Z,4.20
2018-11-28T14:49:08.420Z,4.30
2018-11-28T14:51:38.977Z,4.20
2018-11-28T14:54:08.514Z,4.20
2018-11-28T14:56:37.981Z,4.30
2018-11-28T14:59:07.553Z,4.30
2018-11-28T15:01:36.989Z,4.30
2018-11-28T15:04:06.997Z,4.30
2018-11-28T15:06:48.435Z,4.20
2018-11-28T15:09:23.011Z,4.10
2018-11-28T15:11:52.483Z,4.00
2018-11-28T15:14:22.110Z,4.00
2018-11-28T15:16:52.869Z,4.00
2018-11-28T15:19:22.051Z,4.00
2018-11-28T15:21:51.534Z,4.00
2018-11-28T15:24:20.999Z,3.90
2018-11-28T15:26:50.488Z,3.80
2018-11-28T15:29:19.887Z,3.80
2018-11-28T15:31:49.415Z,3.80
2018-11-28T15:34:18.879Z,3.80
2018-11-28T15:36:48.359Z,3.80
2018-11-28T15:39:17.803Z,3.80
2018-11-28T15:41:47.453Z,3.80
2018-11-28T15:44:16.958Z,3.80
2018-11-28T15:46:47.700Z,3.80
2018-11-28T15:49:17.164Z,3.80
2018-11-28T15:51:47.356Z,3.70
2018-11-28T15:54:16.796Z,3.60
2018-11-28T15:56:48.119Z,3.60
2018-11-28T15:59:17.594Z,3.60
2018-11-28T16:01:47.745Z,3.50
2018-11-28T16:04:17.177Z,3.50
2018-11-28T16:06:47.826Z,3.50
2018-11-28T16:09:23.246Z,3.40
2018-11-28T16:11:52.768Z,3.50
2018-11-28T16:14:24.318Z,3.40
2018-11-28T16:16:54.802Z,3.40
2018-11-28T16:19:24.327Z,3.40
2018-11-28T16:21:53.947Z,3.30
2018-11-28T16:24:23.518Z,3.20
2018-11-28T16:26:53.084Z,3.10
2018-11-28T16:29:23.210Z,3.10
2018-11-28T16:31:53.769Z,3.00
2018-11-28T16:34:23.260Z,3.00
2018-11-28T16:36:52.862Z,2.90
2018-11-28T16:39:22.370Z,2.90
2018-11-28T16:41:52.888Z,2.80
2018-11-28T16:44:22.360Z,2.70
2018-11-28T16:46:52.695Z,2.60
2018-11-28T16:49:22.211Z,2.60
2018-11-28T16:51:52.168Z,2.60
2018-11-28T16:54:21.650Z,2.50
2018-11-28T16:56:52.540Z,2.50
2018-11-28T16:59:30.656Z,2.50
2018-11-28T17:01:55.873Z,2.40
2018-11-28T17:04:25.381Z,2.50
2018-11-28T17:06:54.981Z,2.40
2018-11-28T17:09:24.468Z,2.40
2018-11-28T17:11:56.651Z,2.40
2018-11-28T17:14:26.136Z,2.30
2018-11-28T17:16:55.628Z,2.30
2018-11-28T17:19:25.672Z,2.30
2018-11-28T17:21:55.202Z,2.30
2018-11-28T17:24:26.060Z,2.20
2018-11-28T17:26:55.526Z,2.20
2018-11-28T17:29:26.003Z,2.20
2018-11-28T17:31:55.595Z,2.20
2018-11-28T17:34:26.150Z,2.30
2018-11-28T17:36:56.003Z,2.20
2018-11-28T17:39:25.497Z,2.20
2018-11-28T17:41:55.874Z,2.20
2018-11-28T17:44:25.314Z,2.10
2018-11-28T17:46:55.142Z,2.10
2018-11-28T17:49:27.970Z,2.10
2018-11-28T17:51:55.903Z,2.10
2018-11-28T17:54:25.462Z,2.00
2018-11-28T17:56:55.281Z,2.00
2018-11-28T17:59:24.821Z,2.00
2018-11-28T18:01:54.518Z,2.00
2018-11-28T18:04:24.024Z,1.90
2018-11-28T18:06:53.527Z,1.90
2018-11-28T18:09:23.058Z,1.90
2018-11-28T18:11:52.603Z,1.80
2018-11-28T18:14:21.993Z,1.80
2018-11-28T18:16:52.440Z,1.70
2018-11-28T18:19:21.974Z,1.80
2018-11-28T18:21:51.379Z,1.80
2018-11-28T18:24:20.824Z,1.70
2018-11-28T18:26:50.301Z,1.70
2018-11-28T18:29:19.794Z,1.70
2018-11-28T18:31:49.279Z,1.60
2018-11-28T18:34:18.723Z,1.60
2018-11-28T18:36:48.164Z,1.50
2018-11-28T18:39:18.645Z,1.50
2018-11-28T18:41:49.168Z,1.50
2018-11-28T18:44:18.956Z,1.60
2018-11-28T18:46:48.458Z,1.50
2018-11-28T18:49:18.087Z,1.40
2018-11-28T18:51:48.287Z,1.50
2018-11-28T18:54:17.887Z,1.40
2018-11-28T18:56:47.351Z,1.40
2018-11-28T18:59:16.826Z,1.50
2018-11-28T19:01:48.388Z,1.50
2018-11-28T19:04:15.742Z,1.40
2018-11-28T19:06:45.237Z,1.40
2018-11-28T19:09:19.893Z,1.40
2018-11-28T19:11:49.992Z,1.40
2018-11-28T19:14:19.464Z,1.40
2018-11-28T19:16:48.907Z,1.40
2018-11-28T19:19:18.509Z,1.40
2018-11-28T19:21:48.057Z,1.30
2018-11-28T19:24:17.549Z,1.30
2018-11-28T19:29:30.145Z,1.30
2018-11-28T19:31:59.679Z,1.30
2018-11-28T19:34:29.271Z,1.30
2018-11-28T19:36:59.040Z,1.40
2018-11-28T19:39:28.945Z,1.40
2018-11-28T19:41:58.444Z,1.40
2018-11-28T19:44:27.952Z,1.40
2018-11-28T19:46:57.447Z,1.40
2018-11-28T19:49:26.944Z,1.30
2018-11-28T19:51:58.934Z,1.30
2018-11-28T19:54:28.446Z,1.30
2018-11-28T19:56:58.009Z,1.20
2018-11-28T19:59:27.577Z,1.30
2018-11-28T20:01:57.145Z,1.40
2018-11-28T20:04:26.617Z,1.50
2018-11-28T20:06:56.124Z,1.50
2018-11-28T20:09:25.602Z,1.60
2018-11-28T20:11:55.102Z,1.80
2018-11-28T20:14:24.626Z,1.80
2018-11-28T20:16:54.128Z,1.90
2018-11-28T20:19:25.985Z,2.00
2018-11-28T20:21:55.505Z,2.10
2018-11-28T20:24:25.033Z,2.20
2018-11-28T20:26:54.565Z,2.30
2018-11-28T20:29:25.028Z,2.30
2018-11-28T20:31:56.532Z,2.20
2018-11-28T20:34:26.091Z,2.30
2018-11-28T20:36:55.629Z,2.30
2018-11-28T20:39:25.059Z,2.40
2018-11-28T20:41:54.515Z,2.50
2018-11-28T20:44:24.019Z,2.50
2018-11-28T20:46:53.452Z,2.60
2018-11-28T20:49:22.986Z,2.60
2018-11-28T20:51:53.478Z,2.70
2018-11-28T20:54:24.105Z,2.70
2018-11-28T20:56:53.581Z,2.70
2018-11-28T20:59:23.157Z,2.70
2018-11-28T21:01:52.783Z,2.70
2018-11-28T21:04:22.246Z,2.70
2018-11-28T21:06:51.714Z,2.80
2018-11-28T21:09:21.187Z,2.70
2018-11-28T21:11:52.810Z,2.70
2018-11-28T21:14:23.002Z,2.80
2018-11-28T21:16:52.713Z,2.90
2018-11-28T21:19:22.211Z,3.00
2018-11-28T21:21:51.681Z,3.00
2018-11-28T21:24:22.109Z,3.10
2018-11-28T21:26:51.571Z,3.10
2018-11-28T21:29:21.020Z,3.10
2018-11-28T21:31:52.570Z,3.10
2018-11-28T21:34:22.065Z,3.10
2018-11-28T21:36:51.659Z,3.10
2018-11-28T21:39:21.137Z,3.10
2018-11-28T21:41:50.665Z,3.10
2018-11-28T21:44:20.273Z,3.00
2018-11-28T21:46:49.706Z,3.00
2018-11-28T21:49:19.136Z,2.90
2018-11-28T21:51:49.627Z,2.80
2018-11-28T21:54:19.140Z,2.80
2018-11-28T21:56:48.625Z,2.80
2018-11-28T21:59:18.106Z,2.80
2018-11-28T22:01:47.587Z,2.80
2018-11-28T22:04:17.013Z,2.90
2018-11-28T22:06:46.516Z,2.90
2018-11-28T22:09:16.118Z,2.90
2018-11-28T22:11:45.626Z,2.90
2018-11-28T22:14:15.114Z,2.90
2018-11-28T22:16:44.690Z,2.90
2018-11-28T22:19:15.317Z,2.90
2018-11-28T22:21:45.865Z,2.90
2018-11-28T22:24:16.338Z,2.90
2018-11-28T22:26:45.904Z,2.90
2018-11-28T22:29:17.476Z,2.90
2018-11-28T22:31:47.044Z,2.90
2018-11-28T22:34:16.520Z,2.80
2018-11-28T22:36:46.071Z,2.80
2018-11-28T22:39:15.597Z,2.90
2018-11-28T22:41:46.063Z,2.90
2018-11-28T22:44:15.646Z,2.80
2018-11-28T22:46:46.174Z,2.90
2018-11-28T22:49:16.726Z,2.90
2018-11-28T22:51:46.243Z,2.90
2018-11-28T22:54:17.847Z,2.80
2018-11-28T22:56:47.306Z,2.70
2018-11-28T22:59:16.889Z,2.70
2018-11-28T23:02:54.657Z,2.70
2018-11-28T23:05:27.428Z,2.80
2018-11-28T23:07:58.059Z,2.70
2018-11-28T23:10:27.697Z,2.70
2018-11-28T23:12:57.194Z,2.60
2018-11-28T23:15:26.690Z,2.60
2018-11-28T23:17:56.142Z,2.50
2018-11-28T23:20:26.413Z,2.50
2018-11-28T23:22:59.209Z,2.50
2018-11-28T23:25:28.707Z,2.50
2018-11-28T23:27:58.155Z,2.50
2018-11-28T23:30:28.667Z,2.50
2018-11-28T23:32:58.107Z,2.50
2018-11-28T23:35:27.591Z,2.50
2018-11-28T23:37:57.176Z,2.50
2018-11-28T23:40:27.019Z,2.60
2018-11-28T23:42:56.883Z,2.70
2018-11-28T23:45:26.791Z,2.80
2018-11-28T23:47:56.267Z,2.80
2018-11-28T23:50:26.383Z,2.80
2018-11-28T23:52:56.419Z,2.80
2018-11-28T23:55:27.610Z,2.80
2018-11-28T23:57:57.379Z,2.80
